Time;durP1;ratioP1;P1;durP2;ratioP2;P2;SDS_P1;SDS_P2;PMS_P1;PMS_P2;Temp;Humidity;BMP_temperature;BMP_pressure;BME280_temperature;BME280_humidity;BME280_pressure;Samples;Min_cycle;Max_cycle;Signal;HPM_P1;HPM_P2
2024/02/09 00:00:40;;;;;;;29.50;8.27;;;;;;;11.27;100.00;98688.31;5281538;28;20050;-77
2024/02/09 00:03:11;;;;;;;34.83;7.93;;;;;;;11.27;100.00;98695.53;5279080;28;20027;-77
2024/02/09 00:05:41;;;;;;;21.83;7.35;;;;;;;11.36;100.00;98691.53;5282415;27;20110;-77
2024/02/09 00:08:13;;;;;;;27.50;7.65;;;;;;;11.35;100.00;98685.34;5263283;28;20629;-76
2024/02/09 00:10:44;;;;;;;23.40;6.95;;;;;;;11.28;100.00;98681.88;5280476;27;20027;-77
2024/02/09 00:13:15;;;;;;;32.75;8.25;;;;;;;11.35;100.00;98685.34;5284417;27;20434;-77
2024/02/09 00:15:46;;;;;;;26.10;7.82;;;;;;;11.30;100.00;98666.41;5278258;27;20035;-77
2024/02/09 00:18:18;;;;;;;32.75;8.40;;;;;;;11.37;100.00;98669.81;5282212;27;20393;-77
2024/02/09 00:20:50;;;;;;;25.33;7.30;;;;;;;11.29;100.00;98666.59;5281320;27;20023;-77
2024/02/09 00:23:21;;;;;;;27.50;7.90;;;;;;;11.31;100.00;98656.47;5281065;27;20036;-77
2024/02/09 00:25:51;;;;;;;23.15;7.07;;;;;;;11.25;100.00;98657.38;5284069;28;20057;-76
2024/02/09 00:28:22;;;;;;;24.70;7.72;;;;;;;11.37;100.00;98652.91;5276200;28;20032;-77
2024/02/09 00:30:54;;;;;;;31.15;8.13;;;;;;;11.32;100.00;98658.13;5281195;27;20515;-77
2024/02/09 00:33:24;;;;;;;22.45;7.50;;;;;;;11.33;100.00;98646.31;5281563;27;20031;-77
2024/02/09 00:35:56;;;;;;;31.50;7.47;;;;;;;11.35;100.00;98636.22;5282712;28;20034;-77
2024/02/09 00:38:26;;;;;;;25.95;6.55;;;;;;;11.27;100.00;98634.63;5281410;28;20028;-77
2024/02/09 00:40:57;;;;;;;24.02;7.38;;;;;;;11.24;100.00;98637.75;5278214;28;20405;-77
2024/02/09 00:43:27;;;;;;;20.70;6.53;;;;;;;11.28;100.00;98622.84;5261433;28;20110;-77
2024/02/09 00:46:00;;;;;;;27.70;7.10;;;;;;;11.22;100.00;98614.88;5279980;28;20023;-77
2024/02/09 00:48:31;;;;;;;30.77;7.38;;;;;;;11.19;100.00;98609.94;5283810;28;20035;-77
2024/02/09 00:51:02;;;;;;;25.77;6.75;;;;;;;11.17;100.00;98606.69;5277499;28;20019;-77
2024/02/09 00:53:32;;;;;;;20.33;6.40;;;;;;;11.26;100.00;98594.59;5279437;28;20027;-76
2024/02/09 00:56:04;;;;;;;29.83;7.22;;;;;;;11.23;100.00;98590.50;5283745;28;20026;-77
2024/02/09 00:58:34;;;;;;;30.42;8.38;;;;;;;11.20;100.00;98592.81;5277481;28;20042;-77
2024/02/09 01:01:09;;;;;;;38.50;7.20;;;;;;;11.17;100.00;98590.59;5280918;28;20065;-77
2024/02/09 01:03:39;;;;;;;17.73;6.10;;;;;;;11.20;100.00;98584.78;5277898;28;20035;-77
2024/02/09 01:06:10;;;;;;;29.55;6.13;;;;;;;11.21;100.00;98575.66;5281256;27;20019;-77
2024/02/09 01:08:40;;;;;;;25.90;6.55;;;;;;;11.25;100.00;98574.19;5281758;28;20046;-77
2024/02/09 01:11:11;;;;;;;27.00;6.65;;;;;;;11.18;100.00;98570.75;5278200;28;20072;-77
2024/02/09 02:47:03;;;;;;;8.23;3.67;;;;;;;11.11;100.00;98469.69;5295718;27;20130;-74
2024/02/09 03:06:29;;;;;;;8.82;3.25;;;;;;;10.97;100.00;98451.31;5290846;27;20031;-77
2024/02/09 03:08:59;;;;;;;11.80;4.10;;;;;;;11.01;100.00;98444.44;5286072;27;20424;-76
2024/02/09 03:11:30;;;;;;;13.73;3.55;;;;;;;10.91;100.00;98433.44;5288402;27;20026;-77
2024/02/09 03:14:01;;;;;;;11.13;3.45;;;;;;;11.02;100.00;98440.72;5286792;27;20094;-76
2024/02/09 03:16:32;;;;;;;6.53;3.17;;;;;;;11.10;100.00;98427.81;5295749;27;20032;-76
2024/02/09 03:19:03;;;;;;;10.07;3.33;;;;;;;11.05;100.00;98421.50;5271895;27;20028;-77
2024/02/09 03:21:36;;;;;;;10.40;3.30;;;;;;;11.08;100.00;98410.28;5289931;27;20036;-76
2024/02/09 03:24:07;;;;;;;10.60;4.38;;;;;;;11.09;100.00;98411.91;5296147;27;20531;-76
2024/02/09 03:26:38;;;;;;;10.73;3.03;;;;;;;11.22;100.00;98405.53;5285176;27;20123;-76
2024/02/09 03:29:09;;;;;;;7.55;3.40;;;;;;;11.22;100.00;98422.47;5293913;27;20016;-76
2024/02/09 03:31:39;;;;;;;6.57;2.95;;;;;;;11.22;100.00;98408.22;5279172;28;20020;-76
2024/02/09 03:34:09;;;;;;;14.60;3.67;;;;;;;11.15;100.00;98409.16;5290908;27;20075;-73
2024/02/09 03:36:41;;;;;;;10.05;2.88;;;;;;;11.20;100.00;98403.09;5290187;27;20103;-76
2024/02/09 03:39:12;;;;;;;10.00;3.28;;;;;;;11.24;100.00;98408.81;5286891;27;20497;-76
2024/02/09 03:41:42;;;;;;;9.50;3.40;;;;;;;11.18;100.00;98405.19;5293012;27;20072;-76
2024/02/09 03:44:13;;;;;;;11.35;3.58;;;;;;;11.22;100.00;98406.34;5279402;27;20024;-76
2024/02/09 03:46:44;;;;;;;7.28;2.70;;;;;;;11.14;100.00;98404.84;5284579;27;20031;-76
2024/02/09 03:49:15;;;;;;;5.78;2.40;;;;;;;11.34;100.00;98403.69;5292983;27;20062;-76
2024/02/09 03:51:45;;;;;;;11.88;3.47;;;;;;;11.32;100.00;98400.44;5289768;27;20496;-76
2024/02/09 03:54:16;;;;;;;5.90;2.83;;;;;;;11.25;100.00;98389.00;5291714;27;20444;-76
2024/02/09 03:56:46;;;;;;;8.15;2.72;;;;;;;11.26;100.00;98394.13;5291678;27;20088;-76
2024/02/09 03:59:17;;;;;;;10.73;2.60;;;;;;;11.31;100.00;98398.81;5286446;27;20098;-76
2024/02/09 04:01:47;;;;;;;12.07;3.20;;;;;;;11.33;100.00;98388.63;5287515;27;20032;-76
2024/02/09 04:04:18;;;;;;;15.10;3.25;;;;;;;11.44;100.00;98393.19;5288645;27;20035;-76
2024/02/09 04:06:48;;;;;;;6.70;2.70;;;;;;;11.26;100.00;98386.06;5281500;27;20119;-76
2024/02/09 04:09:19;;;;;;;7.65;2.75;;;;;;;11.31;100.00;98382.69;5297264;27;20027;-76
2024/02/09 04:11:50;;;;;;;12.38;3.55;;;;;;;11.34;100.00;98387.59;5281284;27;20031;-76
2024/02/09 04:14:21;;;;;;;8.50;3.00;;;;;;;11.36;100.00;98380.94;5288170;27;20031;-76
2024/02/09 04:16:52;;;;;;;12.25;2.50;;;;;;;11.31;100.00;98380.00;5290546;27;20090;-76
2024/02/09 04:19:23;;;;;;;10.13;3.50;;;;;;;11.32;100.00;98381.66;5284766;27;20114;-76
2024/02/09 04:21:53;;;;;;;13.77;3.60;;;;;;;11.37;100.00;98387.13;5287466;27;20028;-76
2024/02/09 04:24:24;;;;;;;12.60;3.22;;;;;;;11.39;100.00;98391.22;5287787;27;20469;-76
2024/02/09 04:26:55;;;;;;;10.48;3.65;;;;;;;11.40;100.00;98384.00;5283269;27;20440;-76
2024/02/09 04:29:25;;;;;;;9.63;3.13;;;;;;;11.41;100.00;98380.25;5289627;27;20033;-75
2024/02/09 04:31:56;;;;;;;9.20;3.42;;;;;;;11.33;100.00;98384.09;5285051;27;20063;-75
2024/02/09 04:34:26;;;;;;;10.20;2.97;;;;;;;11.36;100.00;98380.13;5282671;27;20058;-75
2024/02/09 04:36:59;;;;;;;8.90;3.40;;;;;;;11.38;100.00;98378.03;5288796;27;20027;-75
2024/02/09 04:39:30;;;;;;;10.60;2.92;;;;;;;11.26;100.00;98375.34;5281822;28;20020;-75
2024/02/09 04:42:00;;;;;;;15.60;3.47;;;;;;;11.26;100.00;98375.34;5280815;28;20043;-75
2024/02/09 04:44:33;;;;;;;12.00;3.60;;;;;;;11.31;100.00;98370.09;5282560;27;20036;-75
2024/02/09 04:47:03;;;;;;;6.85;2.97;;;;;;;11.28;100.00;98375.91;5281742;28;20039;-75
2024/02/09 04:49:34;;;;;;;11.65;3.20;;;;;;;11.32;100.00;98363.66;5286728;27;20018;-75
2024/02/09 04:52:04;;;;;;;4.88;2.85;;;;;;;11.39;100.00;98356.31;5283248;28;20016;-75
2024/02/09 04:54:36;;;;;;;7.05;2.30;;;;;;;11.33;100.00;98353.75;5288249;28;20556;-75
2024/02/09 04:57:07;;;;;;;11.27;3.05;;;;;;;11.42;100.00;98357.72;5286651;28;20035;-75
2024/02/09 04:59:38;;;;;;;9.13;2.63;;;;;;;11.36;100.00;98356.78;5281374;28;20107;-74
2024/02/09 05:02:10;;;;;;;11.70;3.22;;;;;;;11.36;100.00;98350.59;5287460;28;20075;-75
2024/02/09 05:04:41;;;;;;;11.57;3.08;;;;;;;11.39;100.00;98344.75;5287188;28;20020;-75
2024/02/09 05:07:12;;;;;;;16.58;3.13;;;;;;;11.48;100.00;98346.06;5282356;28;20084;-75
2024/02/09 05:09:42;;;;;;;9.13;3.38;;;;;;;11.48;100.00;98343.38;5280621;28;20114;-75
2024/02/09 05:12:13;;;;;;;11.77;2.67;;;;;;;11.36;100.00;98329.94;5283808;28;20524;-75
2024/02/09 05:14:44;;;;;;;10.55;3.28;;;;;;;11.47;100.00;98332.88;5280015;28;20098;-75
2024/02/09 05:17:15;;;;;;;15.23;3.53;;;;;;;11.35;100.00;98347.13;5291170;27;20028;-75
2024/02/09 05:19:45;;;;;;;9.77;2.80;;;;;;;11.43;100.00;98347.81;5281186;27;20032;-75
2024/02/09 05:22:16;;;;;;;10.15;3.92;;;;;;;11.45;100.00;98345.72;5291056;27;20023;-75
2024/02/09 05:24:46;;;;;;;15.45;3.13;;;;;;;11.55;100.00;98345.97;5284377;27;20031;-75
2024/02/09 05:27:20;;;;;;;13.55;3.05;;;;;;;11.48;100.00;98350.59;5294716;27;20066;-75
2024/02/09 05:29:52;;;;;;;9.35;3.10;;;;;;;11.47;100.00;98346.28;5289200;27;20031;-75
2024/02/09 05:32:22;;;;;;;5.60;2.63;;;;;;;11.59;100.00;98341.72;5283096;28;20019;-75
2024/02/09 05:34:55;;;;;;;12.57;3.33;;;;;;;11.53;100.00;98343.50;5286340;28;20027;-75
2024/02/09 05:37:26;;;;;;;16.08;3.38;;;;;;;11.64;100.00;98345.34;5292083;27;20027;-75
2024/02/09 05:39:57;;;;;;;15.98;3.78;;;;;;;11.59;100.00;98339.88;5287402;27;20079;-75
2024/02/09 05:42:27;;;;;;;13.23;3.63;;;;;;;11.61;100.00;98339.66;5285908;28;20115;-75
2024/02/09 05:44:57;;;;;;;11.27;4.38;;;;;;;11.53;100.00;98334.63;5288141;27;20031;-75
2024/02/09 05:47:30;;;;;;;13.13;3.97;;;;;;;11.60;100.00;98332.66;5282948;28;20104;-75
2024/02/09 05:50:00;;;;;;;7.85;2.85;;;;;;;11.61;100.00;98324.34;5288429;27;20024;-75
2024/02/09 05:52:31;;;;;;;6.68;2.78;;;;;;;11.51;100.00;98316.06;5286842;27;20065;-75
2024/02/09 05:55:03;;;;;;;9.85;2.85;;;;;;;11.48;100.00;98315.72;5287674;28;20044;-75
2024/02/09 05:57:35;;;;;;;12.30;3.25;;;;;;;11.60;100.00;98317.34;5278357;28;20024;-74
2024/02/09 06:00:07;;;;;;;13.20;3.47;;;;;;;11.75;100.00;98322.25;5278899;27;20028;-75
2024/02/09 06:02:37;;;;;;;9.40;3.30;;;;;;;11.72;100.00;98328.06;5267284;28;20423;-75
2024/02/09 06:05:08;;;;;;;11.27;3.13;;;;;;;11.75;100.00;98321.44;5281176;28;20076;-75
2024/02/09 06:07:39;;;;;;;10.02;3.30;;;;;;;11.80;100.00;98326.91;5279759;28;20027;-75
2024/02/09 06:10:10;;;;;;;9.65;2.50;;;;;;;11.72;100.00;98320.03;5281353;28;20028;-75
2024/02/09 06:12:43;;;;;;;10.32;2.80;;;;;;;11.75;100.00;98324.13;5284917;28;20023;-75
2024/02/09 06:15:13;;;;;;;9.40;3.38;;;;;;;11.66;100.00;98320.97;5283856;27;20030;-75
2024/02/09 06:17:44;;;;;;;10.68;2.97;;;;;;;11.71;100.00;98317.59;5269363;28;20027;-75
2024/02/09 06:20:15;;;;;;;7.00;2.40;;;;;;;11.71;100.00;98318.41;5282157;28;20038;-75
2024/02/09 06:22:46;;;;;;;9.75;2.72;;;;;;;11.84;100.00;98320.84;5284348;27;20027;-75
2024/02/09 06:25:17;;;;;;;8.90;2.70;;;;;;;11.71;100.00;98306.84;5289175;27;20377;-75
2024/02/09 06:27:47;;;;;;;12.43;2.97;;;;;;;11.76;100.00;98315.81;5282456;27;20066;-75
2024/02/09 06:30:18;;;;;;;13.20;2.90;;;;;;;11.78;100.00;98308.31;5274935;27;20023;-75
2024/02/09 06:32:49;;;;;;;7.70;2.42;;;;;;;11.87;100.00;98319.56;5281560;27;20385;-76
2024/02/09 06:35:19;;;;;;;10.70;2.58;;;;;;;11.80;100.00;98321.53;5279982;28;20027;-75
2024/02/09 06:37:52;;;;;;;8.93;3.05;;;;;;;11.76;100.00;98309.63;5284477;28;20034;-75
2024/02/09 06:40:23;;;;;;;7.30;2.53;;;;;;;11.76;100.00;98315.00;5285367;27;21299;-75
2024/02/09 06:42:53;;;;;;;7.78;3.60;;;;;;;11.82;100.00;98322.16;5288453;27;20015;-76
2024/02/09 06:45:24;;;;;;;6.80;2.83;;;;;;;11.59;100.00;98315.69;5289678;27;20023;-76
2024/02/09 06:47:55;;;;;;;5.22;2.63;;;;;;;11.61;100.00;98312.78;5287215;27;20027;-75
2024/02/09 06:50:25;;;;;;;6.82;2.90;;;;;;;11.66;100.00;98308.34;5290322;27;20149;-75
2024/02/09 06:52:56;;;;;;;12.38;3.00;;;;;;;11.58;100.00;98307.88;5288030;27;20071;-75
2024/02/09 06:55:26;;;;;;;12.68;2.42;;;;;;;11.67;100.00;98309.16;5291288;27;20027;-75
2024/02/09 06:57:56;;;;;;;10.68;3.05;;;;;;;11.66;100.00;98304.84;5291008;27;20500;-75
2024/02/09 07:00:27;;;;;;;12.55;4.13;;;;;;;11.71;100.00;98309.53;5286954;27;20501;-75
2024/02/09 07:02:58;;;;;;;18.50;3.90;;;;;;;11.71;100.00;98304.97;5293321;27;20434;-75
2024/02/09 07:05:29;;;;;;;12.05;4.38;;;;;;;11.73;100.00;98320.84;5273939;27;20031;-75
2024/02/09 07:08:00;;;;;;;8.25;3.17;;;;;;;11.80;100.00;98316.19;5281584;28;20027;-75
2024/02/09 07:10:31;;;;;;;10.05;3.10;;;;;;;11.79;100.00;98319.88;5270753;27;20027;-75
2024/02/09 07:13:02;;;;;;;10.07;2.40;;;;;;;11.82;100.00;98317.59;5286554;27;20111;-76
2024/02/09 07:15:33;;;;;;;10.20;2.53;;;;;;;11.84;100.00;98320.84;5288885;27;20023;-76
2024/02/09 07:18:03;;;;;;;10.18;2.85;;;;;;;11.76;100.00;98321.19;5283729;27;20028;-76
2024/02/09 07:20:35;;;;;;;7.55;2.47;;;;;;;11.77;100.00;98324.69;5278431;28;20019;-76
2024/02/09 07:23:06;;;;;;;8.25;2.42;;;;;;;11.71;100.00;98328.31;5288685;27;20367;-76
2024/02/09 07:25:36;;;;;;;8.73;2.40;;;;;;;11.83;100.00;98334.53;5290197;27;20027;-76
2024/02/09 07:28:06;;;;;;;11.15;2.67;;;;;;;11.80;100.00;98340.34;5289041;27;20121;-76
2024/02/09 07:30:38;;;;;;;10.02;2.75;;;;;;;11.73;100.00;98336.94;5285784;27;20106;-76
2024/02/09 07:33:09;;;;;;;14.82;3.05;;;;;;;11.74;100.00;98336.72;5272361;27;20040;-76
2024/02/09 07:35:40;;;;;;;12.68;2.65;;;;;;;11.79;100.00;98336.00;5286842;27;20516;-75
2024/02/09 07:38:11;;;;;;;6.72;2.38;;;;;;;11.70;100.00;98343.63;5285368;27;20027;-76
2024/02/09 07:40:42;;;;;;;6.28;2.42;;;;;;;11.85;100.00;98340.50;5282537;27;20020;-75
2024/02/09 07:43:13;;;;;;;8.52;2.78;;;;;;;11.90;100.00;98343.28;5288679;27;20023;-75
2024/02/09 07:45:43;;;;;;;5.45;2.25;;;;;;;11.82;100.00;98349.00;5286947;27;20038;-75
2024/02/09 07:48:13;;;;;;;6.85;2.40;;;;;;;11.85;100.00;98340.50;5284176;27;20020;-75
2024/02/09 07:50:44;;;;;;;8.48;3.10;;;;;;;11.95;100.00;98343.41;5285885;27;20019;-75
2024/02/09 07:53:15;;;;;;;5.10;2.15;;;;;;;11.97;100.00;98348.53;5291925;27;20613;-76
2024/02/09 07:55:45;;;;;;;10.68;2.22;;;;;;;12.03;100.00;98342.19;5284177;27;20102;-76
2024/02/09 07:58:17;;;;;;;10.23;2.80;;;;;;;12.11;100.00;98350.72;5291182;27;20011;-75
2024/02/09 08:00:47;;;;;;;6.25;2.10;;;;;;;12.08;100.00;98345.00;5278121;28;20039;-76
2024/02/09 08:03:20;;;;;;;12.82;2.35;;;;;;;12.09;100.00;98347.44;5289533;27;20027;-76
2024/02/09 08:05:50;;;;;;;6.05;2.25;;;;;;;12.16;100.00;98348.16;5282665;28;20493;-76
2024/02/09 08:08:21;;;;;;;8.82;2.20;;;;;;;12.19;100.00;98360.28;5283302;27;20054;-76
2024/02/09 08:10:51;;;;;;;13.27;2.78;;;;;;;12.11;100.00;98342.66;5288201;27;20022;-76
2024/02/09 08:13:23;;;;;;;14.15;2.95;;;;;;;12.22;100.00;98354.44;5287104;27;20106;-75
2024/02/09 08:15:55;;;;;;;8.68;2.17;;;;;;;12.36;100.00;98342.38;5288019;27;20031;-75
2024/02/09 08:18:26;;;;;;;6.78;2.78;;;;;;;12.56;100.00;98352.69;5284085;27;20062;-75
2024/02/09 08:20:56;;;;;;;11.20;2.60;;;;;;;12.75;100.00;98344.41;5279129;27;20110;-75
2024/02/09 08:23:27;;;;;;;10.48;2.10;;;;;;;12.98;100.00;98348.88;5285866;27;20107;-76
2024/02/09 08:25:58;;;;;;;8.98;1.60;;;;;;;13.05;100.00;98355.75;5286455;27;20034;-76
2024/02/09 08:28:28;;;;;;;4.43;2.10;;;;;;;13.18;100.00;98360.00;5286944;27;20028;-75
2024/02/09 08:30:59;;;;;;;7.50;2.30;;;;;;;12.95;100.00;98363.63;5281274;27;20024;-75
2024/02/09 08:33:29;;;;;;;6.65;2.28;;;;;;;13.04;100.00;98364.06;5290895;27;20102;-75
2024/02/09 08:36:00;;;;;;;7.28;2.22;;;;;;;12.82;100.00;98372.00;5284504;27;20027;-75
2024/02/09 08:38:31;;;;;;;11.25;2.13;;;;;;;12.85;100.00;98358.91;5284475;27;20371;-75
2024/02/09 08:41:02;;;;;;;8.60;2.60;;;;;;;12.79;100.00;98367.09;5283889;28;20464;-75
2024/02/09 08:43:33;;;;;;;7.00;2.05;;;;;;;12.78;100.00;98370.84;5283834;28;20031;-75
2024/02/09 08:46:04;;;;;;;7.05;1.90;;;;;;;12.67;100.00;98372.53;5283689;28;20502;-75
2024/02/09 08:48:35;;;;;;;9.25;2.03;;;;;;;12.65;100.00;98371.94;5286178;27;20033;-75
2024/02/09 08:51:06;;;;;;;6.85;2.10;;;;;;;12.69;100.00;98371.22;5285355;28;20532;-75
2024/02/09 08:53:38;;;;;;;9.48;2.55;;;;;;;12.70;100.00;98374.72;5283862;27;20448;-75
2024/02/09 08:56:09;;;;;;;8.30;2.03;;;;;;;12.66;100.00;98373.59;5282922;28;20020;-75
2024/02/09 08:58:41;;;;;;;6.18;2.17;;;;;;;12.64;100.00;98370.31;5281433;28;20094;-75
2024/02/09 09:01:12;;;;;;;6.60;1.83;;;;;;;12.69;100.00;98371.22;5286159;28;20023;-75
2024/02/09 09:03:42;;;;;;;8.18;2.25;;;;;;;12.67;100.00;98367.16;5283905;28;20106;-75
2024/02/09 09:06:13;;;;;;;12.25;2.20;;;;;;;12.73;100.00;98373.44;5286306;28;20038;-75
2024/02/09 09:08:43;;;;;;;11.32;2.17;;;;;;;12.84;100.00;98381.47;5284202;27;20028;-75
2024/02/09 09:11:16;;;;;;;7.07;2.00;;;;;;;12.91;100.00;98378.66;5286238;28;20110;-75
2024/02/09 09:13:47;;;;;;;13.20;2.40;;;;;;;12.91;100.00;98378.66;5279685;27;20039;-75
2024/02/09 09:16:17;;;;;;;8.35;2.00;;;;;;;13.00;100.00;98384.44;5277456;28;20028;-75
2024/02/09 09:18:50;;;;;;;4.35;2.03;;;;;;;13.05;100.00;98377.28;5281363;28;20031;-76
2024/02/09 09:21:20;;;;;;;5.78;2.40;;;;;;;13.13;100.00;98381.44;5282243;28;20019;-75
2024/02/09 09:23:51;;;;;;;14.57;2.13;;;;;;;13.08;100.00;98386.75;5287972;28;20084;-75
2024/02/09 09:26:22;;;;;;;7.05;1.70;;;;;;;12.92;100.00;98381.09;5282623;28;20020;-75
2024/02/09 09:28:52;;;;;;;8.95;1.92;;;;;;;12.98;100.00;98383.88;5266406;28;20032;-76
2024/02/09 09:31:25;;;;;;;12.02;2.25;;;;;;;13.04;100.00;98389.09;5281225;28;20016;-75
2024/02/09 09:33:56;;;;;;;4.57;2.08;;;;;;;13.01;100.00;98388.78;5287622;28;20477;-75
2024/02/09 09:36:27;;;;;;;4.90;1.70;;;;;;;13.10;100.00;98393.53;5281350;28;20495;-75
2024/02/09 09:38:59;;;;;;;12.45;1.98;;;;;;;13.21;100.00;98395.38;5284907;28;20027;-75
2024/02/09 09:41:29;;;;;;;11.60;2.33;;;;;;;13.23;100.00;98397.00;5283525;28;20034;-75
2024/02/09 09:44:00;;;;;;;5.60;1.88;;;;;;;13.15;100.00;98392.78;5280394;28;20024;-75
2024/02/09 09:46:30;;;;;;;7.50;1.75;;;;;;;13.20;100.00;98380.25;5284099;28;20058;-75
2024/02/09 09:49:03;;;;;;;5.43;2.15;;;;;;;13.34;100.00;98390.72;5277483;28;20043;-75
2024/02/09 09:51:35;;;;;;;7.13;1.75;;;;;;;13.52;100.00;98393.19;5283604;28;20027;-75
2024/02/09 09:54:08;;;;;;;8.35;1.70;;;;;;;13.52;100.00;98395.88;5283068;28;20012;-75
2024/02/09 09:56:44;;;;;;;8.48;1.92;;;;;;;13.68;100.00;98397.75;5284410;27;20156;-75
2024/02/09 09:59:17;;;;;;;9.48;2.00;;;;;;;13.66;100.00;98404.47;5279345;28;20030;-75
2024/02/09 10:01:49;;;;;;;3.72;1.67;;;;;;;13.54;100.00;98407.22;5281800;28;20100;-75
2024/02/09 10:04:20;;;;;;;4.38;1.77;;;;;;;13.81;100.00;98402.00;5291452;27;20106;-75
2024/02/09 10:06:50;;;;;;;8.65;2.00;;;;;;;14.07;100.00;98397.78;5289718;27;20165;-75
2024/02/09 10:09:21;;;;;;;17.35;2.50;;;;;;;14.27;100.00;98404.53;5285316;28;20035;-75
2024/02/09 10:11:52;;;;;;;6.78;2.00;;;;;;;14.35;100.00;98412.16;5286753;27;20552;-75
2024/02/09 10:14:23;;;;;;;7.32;2.42;;;;;;;14.34;100.00;98407.84;5287632;27;20019;-75
2024/02/09 10:16:56;;;;;;;9.50;2.28;;;;;;;14.20;100.00;98407.38;5284656;28;20031;-75
2024/02/09 10:19:27;;;;;;;6.90;1.67;;;;;;;14.34;100.00;98416.75;5287536;27;20044;-75
2024/02/09 10:21:59;;;;;;;10.07;1.75;;;;;;;14.35;100.00;98412.16;5283701;28;20098;-75
2024/02/09 10:24:30;;;;;;;7.03;2.38;;;;;;;14.31;100.00;98424.50;5283253;28;20023;-75
2024/02/09 10:27:00;;;;;;;8.68;2.33;;;;;;;14.32;100.00;98421.59;5285491;28;20061;-75
2024/02/09 10:29:31;;;;;;;8.13;2.30;;;;;;;14.32;100.00;98409.97;5282659;28;20028;-75
2024/02/09 10:32:01;;;;;;;10.23;3.20;;;;;;;14.12;100.00;98430.22;5284648;27;20020;-75
2024/02/09 10:34:32;;;;;;;5.05;2.15;;;;;;;14.20;100.00;98412.78;5283280;28;20026;-75
2024/02/09 10:37:03;;;;;;;6.28;1.92;;;;;;;14.24;100.00;98424.69;5289366;27;20020;-75
2024/02/09 10:39:33;;;;;;;6.50;2.08;;;;;;;14.15;100.00;98413.50;5283177;28;20011;-75
2024/02/09 10:42:06;;;;;;;8.57;3.25;;;;;;;14.32;100.00;98421.59;5277363;28;20012;-75
2024/02/09 10:44:38;;;;;;;6.28;2.22;;;;;;;14.36;100.00;98425.41;5286590;27;20485;-75
2024/02/09 10:47:09;;;;;;;7.97;2.60;;;;;;;14.42;100.00;98423.59;5289688;27;20031;-75
2024/02/09 10:49:44;;;;;;;8.70;2.40;;;;;;;14.42;100.00;98429.00;5287190;27;20035;-75
2024/02/09 10:52:17;;;;;;;12.15;2.53;;;;;;;14.39;100.00;98438.38;5284654;27;20069;-75
2024/02/09 10:54:49;;;;;;;8.88;2.20;;;;;;;14.23;100.00;98425.78;5286987;27;20024;-75
2024/02/09 10:57:20;;;;;;;9.80;1.95;;;;;;;14.12;100.00;98424.81;5286136;27;20104;-75
2024/02/09 10:59:51;;;;;;;6.43;2.38;;;;;;;14.13;100.00;98417.53;5283644;27;20663;-75
2024/02/09 11:02:22;;;;;;;7.32;2.22;;;;;;;14.18;100.00;98433.78;5286928;27;20458;-75
2024/02/09 11:04:54;;;;;;;7.20;2.20;;;;;;;14.35;100.00;98439.94;5289427;27;20423;-75
2024/02/09 11:07:25;;;;;;;9.57;2.10;;;;;;;14.09;100.00;98446.88;5286586;27;20030;-75
2024/02/09 11:09:58;;;;;;;9.30;2.28;;;;;;;14.08;100.00;98436.34;5286405;27;20028;-75
2024/02/09 11:12:28;;;;;;;6.57;1.80;;;;;;;14.06;100.00;98444.69;5291305;27;20429;-75
2024/02/09 11:15:12;;;;;;;11.52;2.28;;;;;;;14.09;100.00;98443.34;5285139;27;20046;-75
2024/02/09 11:17:46;;;;;;;7.65;1.90;;;;;;;14.04;100.00;98448.69;5284096;27;20031;-75
2024/02/09 11:20:17;;;;;;;7.70;1.70;;;;;;;14.17;100.00;98434.84;5282689;27;20055;-75
2024/02/09 11:22:48;;;;;;;8.02;2.28;;;;;;;14.17;100.00;98437.56;5289674;27;20019;-75
2024/02/09 11:25:19;;;;;;;12.48;2.90;;;;;;;14.06;100.00;98438.47;5284969;27;20492;-75
2024/02/09 11:27:51;;;;;;;9.45;2.50;;;;;;;14.01;100.00;98439.22;5283060;27;20024;-75
2024/02/09 11:30:21;;;;;;;8.18;1.98;;;;;;;14.04;100.00;98454.88;5270273;27;20149;-75
2024/02/09 11:32:52;;;;;;;10.55;2.63;;;;;;;13.98;100.00;98447.78;5285850;27;20027;-75
2024/02/09 11:35:27;;;;;;;14.20;2.90;;;;;;;13.89;100.00;98447.38;5283607;27;20030;-75
2024/02/09 11:37:58;;;;;;;10.57;2.25;;;;;;;13.96;100.00;98441.84;5282204;27;20027;-75
2024/02/09 11:40:29;;;;;;;6.90;2.30;;;;;;;14.06;100.00;98438.47;5284778;27;20388;-76
2024/02/09 11:43:00;;;;;;;7.60;2.10;;;;;;;13.96;100.00;98445.34;5282842;28;20396;-76
2024/02/09 11:45:31;;;;;;;10.68;1.92;;;;;;;14.02;100.00;98431.94;5284112;27;20030;-75
2024/02/09 11:48:02;;;;;;;6.32;1.98;;;;;;;14.20;100.00;98437.84;5282499;27;20674;-75
2024/02/09 11:50:34;;;;;;;10.50;2.05;;;;;;;14.35;100.00;98434.56;5275789;27;20047;-75
2024/02/09 11:53:07;;;;;;;5.25;1.45;;;;;;;14.44;100.00;98429.56;5281307;27;20036;-75
2024/02/09 11:55:39;;;;;;;7.20;2.10;;;;;;;14.34;100.00;98440.22;5280723;27;20024;-75
2024/02/09 11:58:11;;;;;;;11.73;2.00;;;;;;;14.23;100.00;98418.50;5283393;27;20040;-75
2024/02/09 12:00:42;;;;;;;10.30;2.58;;;;;;;14.40;100.00;98429.22;5282214;27;20092;-75
2024/02/09 12:03:13;;;;;;;7.47;2.17;;;;;;;14.35;100.00;98428.34;5280966;27;20539;-75
2024/02/09 12:05:46;;;;;;;7.38;1.90;;;;;;;14.22;100.00;98426.84;5285356;27;20031;-75
2024/02/09 12:08:18;;;;;;;7.20;2.50;;;;;;;14.17;100.00;98441.06;5282683;27;20036;-75
2024/02/09 12:10:50;;;;;;;5.05;2.08;;;;;;;14.38;100.00;98444.84;5275014;27;20376;-75
2024/02/09 12:13:21;;;;;;;9.80;1.85;;;;;;;14.30;100.00;98433.69;5283139;27;20043;-75
2024/02/09 12:15:52;;;;;;;5.78;1.73;;;;;;;14.09;100.00;98435.28;5281842;27;20084;-75
2024/02/09 12:18:23;;;;;;;9.30;2.10;;;;;;;14.19;100.00;98440.81;5283885;27;20032;-75
2024/02/09 12:20:54;;;;;;;10.13;2.20;;;;;;;14.24;100.00;98441.69;5284135;27;20034;-75
2024/02/09 12:23:25;;;;;;;5.70;1.92;;;;;;;14.24;100.00;98440.88;5280986;27;20047;-74
2024/02/09 12:25:56;;;;;;;9.10;2.25;;;;;;;14.09;100.00;98435.28;5280643;28;20023;-75
2024/02/09 12:28:28;;;;;;;8.20;1.70;;;;;;;14.09;100.00;98438.78;5283005;28;20067;-74
2024/02/09 12:30:58;;;;;;;9.60;2.33;;;;;;;13.99;100.00;98444.03;5279643;28;20039;-75
2024/02/09 12:33:29;;;;;;;14.48;1.95;;;;;;;14.01;100.00;98431.13;5278861;27;20104;-75
2024/02/09 12:36:05;;;;;;;5.13;1.60;;;;;;;14.07;100.00;98437.41;5262785;28;20020;-75
2024/02/09 12:38:40;;;;;;;9.90;1.98;;;;;;;14.27;100.00;98442.28;5285429;27;20055;-75
2024/02/09 12:41:12;;;;;;;10.77;1.83;;;;;;;14.18;100.00;98437.31;5279240;28;20137;-75
2024/02/09 12:43:44;;;;;;;4.53;1.85;;;;;;;14.20;100.00;98440.56;5285737;27;20067;-75
2024/02/09 12:46:18;;;;;;;5.93;1.67;;;;;;;14.33;100.00;98431.31;5280707;28;20466;-75
2024/02/09 12:48:49;;;;;;;12.98;2.15;;;;;;;14.63;100.00;98440.91;5282846;28;20054;-75
2024/02/09 12:51:19;;;;;;;8.40;1.90;;;;;;;14.63;100.00;98439.00;5278638;28;20695;-75
2024/02/09 12:53:50;;;;;;;10.38;1.92;;;;;;;14.71;100.00;98433.19;5280966;28;20024;-74
2024/02/09 12:56:20;;;;;;;6.07;1.83;;;;;;;14.79;100.00;98434.59;5282389;27;20027;-75
2024/02/09 12:58:51;;;;;;;8.10;2.08;;;;;;;14.57;100.00;98433.81;5280176;28;20404;-75
2024/02/09 13:01:21;;;;;;;8.45;1.92;;;;;;;14.68;100.00;98430.16;5279270;28;20027;-75
2024/02/09 13:03:52;;;;;;;7.55;1.58;;;;;;;14.79;100.00;98434.59;5281444;27;20031;-75
2024/02/09 13:06:22;;;;;;;10.95;2.10;;;;;;;14.64;100.00;98427.13;5281432;28;20050;-75
2024/02/09 13:08:56;;;;;;;7.28;2.97;;;;;;;14.57;100.00;98426.53;5280977;28;20035;-75
2024/02/09 13:11:27;;;;;;;5.47;1.45;;;;;;;14.46;100.00;98422.03;5275740;28;20058;-75
2024/02/09 13:13:59;;;;;;;6.78;1.40;;;;;;;14.52;100.00;98433.75;5279959;28;20078;-75
2024/02/09 13:16:29;;;;;;;7.88;1.55;;;;;;;14.48;100.00;98430.72;5282223;28;20062;-75
2024/02/09 13:19:00;;;;;;;6.28;1.70;;;;;;;14.41;100.00;98430.06;5282657;28;20114;-75
2024/02/09 13:21:31;;;;;;;6.47;2.22;;;;;;;14.34;100.00;98429.41;5279118;28;20043;-75
2024/02/09 13:24:06;;;;;;;6.50;1.98;;;;;;;14.44;100.00;98429.56;5279684;28;20024;-75
2024/02/09 13:26:39;;;;;;;7.05;1.50;;;;;;;14.38;100.00;98433.25;5280431;28;20033;-75
2024/02/09 13:29:09;;;;;;;7.75;1.63;;;;;;;14.43;100.00;98428.75;5281637;28;20319;-74